Time,TemperatureF,DewpointF,PressureIn,WindDirection,WindDirectionDegrees,WindSpeedMPH,WindSpeedGustMPH,Humidity,HourlyPrecipIn,Conditions,Clouds,dailyrainin,SoftwareType,DateUTC
2013-07-14 00:01:00,70.9,66.5,30.31,South,180,0.4,1.1,86,0.00,,,0.00,WUHU216HW,2013-07-14 04:01:00,
2013-07-14 00:06:00,70.9,66.5,30.31,South,180,0.0,1.1,86,0.00,,,0.00,WUHU216HW,2013-07-14 04:06:00,
2013-07-14 00:11:00,70.7,66.3,30.31,South,180,0.2,0.7,86,0.00,,,0.00,WUHU216HW,2013-07-14 04:11:00,
2013-07-14 00:16:00,70.6,66.2,30.31,WSW,248,1.8,1.8,86,0.00,,,0.00,WUHU216HW,2013-07-14 04:16:00,
2013-07-14 00:21:00,70.4,66.0,30.31,SW,225,0.7,1.8,86,0.00,,,0.00,WUHU216HW,2013-07-14 04:21:00,
2013-07-14 00:26:00,70.6,67.1,30.31,SW,225,0.7,1.8,89,0.00,,,0.00,WUHU216HW,2013-07-14 04:26:00,
2013-07-14 00:31:00,70.6,67.1,30.31,SW,225,0.0,1.1,89,0.00,,,0.00,WUHU216HW,2013-07-14 04:31:00,
2013-07-14 00:36:00,70.7,67.0,30.31,SW,225,0.7,1.3,88,0.00,,,0.00,WUHU216HW,2013-07-14 04:36:00,
2013-07-14 00:41:00,70.6,67.1,30.31,SW,225,1.1,1.3,89,0.00,,,0.00,WUHU216HW,2013-07-14 04:41:00,
2013-07-14 00:46:00,70.6,67.5,30.31,SW,225,1.6,1.8,90,0.00,,,0.00,WUHU216HW,2013-07-14 04:46:00,
2013-07-14 00:51:00,70.6,67.5,30.31,SW,225,1.1,1.8,90,0.00,,,0.00,WUHU216HW,2013-07-14 04:51:00,
2013-07-14 00:56:00,70.6,67.8,30.31,WSW,248,1.1,1.8,91,0.00,,,0.00,WUHU216HW,2013-07-14 04:56:00,
2013-07-14 01:01:00,70.7,68.0,30.30,SW,225,2.2,2.9,91,0.00,,,0.00,WUHU216HW,2013-07-14 05:01:00,
2013-07-14 01:06:00,70.9,67.9,30.30,SW,225,0.9,2.9,90,0.00,,,0.00,WUHU216HW,2013-07-14 05:06:00,
2013-07-14 01:11:00,70.9,68.1,30.30,SW,225,1.1,2.2,91,0.00,,,0.00,WUHU216HW,2013-07-14 05:11:00,
2013-07-14 01:16:00,71.1,68.7,30.30,SW,225,2.2,2.2,92,0.00,,,0.00,WUHU216HW,2013-07-14 05:16:00,
2013-07-14 01:21:00,71.3,68.9,30.31,SW,225,1.8,2.5,92,0.00,,,0.00,WUHU216HW,2013-07-14 05:21:00,
2013-07-14 01:26:00,71.3,68.9,30.31,WSW,248,2.0,2.9,92,0.00,,,0.00,WUHU216HW,2013-07-14 05:26:00,
2013-07-14 01:31:00,71.3,68.9,30.31,WSW,248,1.6,2.9,92,0.00,,,0.00,WUHU216HW,2013-07-14 05:31:00,
2013-07-14 01:36:00,71.3,68.5,30.31,SSW,203,0.2,2.2,91,0.00,,,0.00,WUHU216HW,2013-07-14 05:36:00,
2013-07-14 01:41:00,71.5,69.0,30.31,WSW,248,0.4,2.5,92,0.00,,,0.00,WUHU216HW,2013-07-14 05:41:00,
2013-07-14 01:46:00,71.6,69.2,30.31,WSW,248,0.0,2.5,92,0.00,,,0.00,WUHU216HW,2013-07-14 05:46:00,
2013-07-14 01:51:00,71.6,68.9,30.31,WSW,248,1.8,3.1,91,0.00,,,0.00,WUHU216HW,2013-07-14 05:51:00,
2013-07-14 01:56:00,71.6,68.9,30.30,WSW,248,0.4,3.1,91,0.00,,,0.00,WUHU216HW,2013-07-14 05:56:00,
2013-07-14 02:01:00,71.8,69.0,30.30,WSW,248,0.7,3.4,91,0.00,,,0.00,WUHU216HW,2013-07-14 06:01:00,
2013-07-14 02:06:00,72.0,69.2,30.30,WSW,248,0.0,3.4,91,0.00,,,0.00,WUHU216HW,2013-07-14 06:06:00,
2013-07-14 02:11:00,72.0,69.2,30.31,WSW,248,1.6,1.6,91,0.00,,,0.00,WUHU216HW,2013-07-14 06:11:00,
2013-07-14 02:16:00,72.0,68.9,30.31,North,0,0.4,1.6,90,0.00,,,0.00,WUHU216HW,2013-07-14 06:16:00,
2013-07-14 02:21:00,72.0,69.2,30.31,ESE,113,0.4,1.6,91,0.00,,,0.00,WUHU216HW,2013-07-14 06:21:00,
2013-07-14 02:26:00,72.0,68.9,30.31,SE,135,0.4,1.1,90,0.00,,,0.00,WUHU216HW,2013-07-14 06:26:00,
2013-07-14 02:31:00,72.0,68.9,30.31,NNE,23,1.1,1.3,90,0.00,,,0.00,WUHU216HW,2013-07-14 06:31:00,
2013-07-14 02:36:00,72.0,68.9,30.31,NNE,23,0.0,1.3,90,0.00,,,0.00,WUHU216HW,2013-07-14 06:36:00,
2013-07-14 02:41:00,72.2,69.4,30.31,West,270,0.4,3.1,91,0.00,,,0.00,WUHU216HW,2013-07-14 06:41:00,
2013-07-14 02:46:00,72.4,69.3,30.31,WNW,293,0.2,3.1,90,0.00,,,0.00,WUHU216HW,2013-07-14 06:46:00,
2013-07-14 02:51:00,72.4,69.3,30.30,West,270,0.7,1.3,90,0.00,,,0.00,WUHU216HW,2013-07-14 06:51:00,
2013-07-14 02:56:00,72.5,69.5,30.30,WNW,293,0.7,2.2,90,0.00,,,0.00,WUHU216HW,2013-07-14 06:56:00,
2013-07-14 03:01:00,72.5,69.5,30.30,SW,225,0.4,2.2,90,0.00,,,0.00,WUHU216HW,2013-07-14 07:01:00,
2013-07-14 03:06:00,72.7,69.7,30.30,NW,315,0.4,1.8,90,0.00,,,0.00,WUHU216HW,2013-07-14 07:06:00,
2013-07-14 03:11:00,72.7,69.7,30.30,NW,315,0.0,1.8,90,0.00,,,0.00,WUHU216HW,2013-07-14 07:11:00,
2013-07-14 03:16:00,72.7,69.3,30.30,NW,315,0.0,0.4,89,0.00,,,0.00,WUHU216HW,2013-07-14 07:16:00,
2013-07-14 03:21:00,72.5,69.5,30.30,North,0,0.4,0.4,90,0.00,,,0.00,WUHU216HW,2013-07-14 07:21:00,
2013-07-14 03:26:00,72.4,68.9,30.30,NNE,23,0.4,0.4,89,0.00,,,0.00,WUHU216HW,2013-07-14 07:26:00,
2013-07-14 03:31:00,72.4,68.9,30.30,NNE,23,0.4,0.7,89,0.00,,,0.00,WUHU216HW,2013-07-14 07:31:00,
2013-07-14 03:36:00,72.2,68.8,30.30,NE,45,0.2,1.3,89,0.00,,,0.00,WUHU216HW,2013-07-14 07:36:00,
2013-07-14 03:41:00,72.0,68.9,30.30,East,90,0.0,1.3,90,0.00,,,0.00,WUHU216HW,2013-07-14 07:41:00,
2013-07-14 03:46:00,71.8,68.4,30.29,East,90,0.7,0.7,89,0.00,,,0.00,WUHU216HW,2013-07-14 07:46:00,
2013-07-14 03:51:00,71.6,68.2,30.29,East,90,1.1,1.1,89,0.00,,,0.00,WUHU216HW,2013-07-14 07:51:00,
2013-07-14 03:56:00,71.6,68.6,30.29,SE,135,0.9,2.0,90,0.00,,,0.00,WUHU216HW,2013-07-14 07:56:00,
2013-07-14 04:01:00,71.5,68.7,30.29,SSW,203,1.8,2.5,91,0.00,,,0.00,WUHU216HW,2013-07-14 08:01:00,
2013-07-14 04:06:00,71.3,68.5,30.29,South,180,2.5,2.5,91,0.00,,,0.00,WUHU216HW,2013-07-14 08:06:00,
2013-07-14 04:11:00,71.3,68.5,30.29,SSE,158,1.6,2.5,91,0.00,,,0.00,WUHU216HW,2013-07-14 08:11:00,
2013-07-14 04:16:00,71.3,68.5,30.29,SSW,203,1.6,2.5,91,0.00,,,0.00,WUHU216HW,2013-07-14 08:16:00,
2013-07-14 04:21:00,71.3,68.5,30.29,SSW,203,1.8,1.8,91,0.00,,,0.00,WUHU216HW,2013-07-14 08:21:00,
2013-07-14 04:26:00,71.3,68.5,30.29,ESE,113,1.1,1.8,91,0.00,,,0.00,WUHU216HW,2013-07-14 08:26:00,
2013-07-14 04:31:00,71.3,68.5,30.30,NNW,338,0.0,1.8,91,0.00,,,0.00,WUHU216HW,2013-07-14 08:31:00,
2013-07-14 04:36:00,71.5,68.4,30.30,NNW,338,0.0,1.8,90,0.00,,,0.00,WUHU216HW,2013-07-14 08:36:00,
2013-07-14 04:41:00,71.5,68.4,30.30,NNW,338,0.0,0.0,90,0.00,,,0.00,WUHU216HW,2013-07-14 08:41:00,
2013-07-14 04:46:00,71.5,68.4,30.30,NNW,338,0.0,0.4,90,0.00,,,0.00,WUHU216HW,2013-07-14 08:46:00,
2013-07-14 04:51:00,71.5,68.4,30.29,NNW,338,0.9,0.9,90,0.00,,,0.00,WUHU216HW,2013-07-14 08:51:00,
2013-07-14 04:56:00,71.6,68.6,30.30,NNW,338,0.4,0.9,90,0.00,,,0.00,WUHU216HW,2013-07-14 08:56:00,
2013-07-14 05:01:00,71.5,68.7,30.29,SE,135,0.9,0.9,91,0.00,,,0.00,WUHU216HW,2013-07-14 09:01:00,
2013-07-14 05:06:00,71.3,68.5,30.29,SW,225,0.4,1.8,91,0.00,,,0.00,WUHU216HW,2013-07-14 09:06:00,
2013-07-14 05:11:00,71.3,68.5,30.29,WSW,248,0.4,1.8,91,0.00,,,0.00,WUHU216HW,2013-07-14 09:11:00,
2013-07-14 05:16:00,71.5,68.7,30.29,SSW,203,1.1,1.3,91,0.00,,,0.00,WUHU216HW,2013-07-14 09:16:00,
2013-07-14 05:21:00,71.5,69.0,30.29,SW,225,0.7,1.3,92,0.00,,,0.00,WUHU216HW,2013-07-14 09:21:00,
2013-07-14 05:26:00,71.5,69.0,30.30,SW,225,0.9,2.0,92,0.00,,,0.00,WUHU216HW,2013-07-14 09:26:00,
2013-07-14 05:31:00,71.3,69.1,30.30,SW,225,1.3,2.0,93,0.00,,,0.00,WUHU216HW,2013-07-14 09:31:00,
2013-07-14 05:36:00,71.3,69.1,30.30,WSW,248,1.1,1.3,93,0.00,,,0.00,WUHU216HW,2013-07-14 09:36:00,
2013-07-14 05:41:00,71.3,69.1,30.30,SW,225,1.8,1.8,93,0.00,,,0.00,WUHU216HW,2013-07-14 09:41:00,
2013-07-14 05:46:00,71.3,69.1,30.30,WSW,248,1.1,2.5,93,0.00,,,0.00,WUHU216HW,2013-07-14 09:46:00,
2013-07-14 05:51:00,71.3,69.1,30.30,WSW,248,1.1,2.5,93,0.00,,,0.00,WUHU216HW,2013-07-14 09:51:00,
2013-07-14 05:56:00,71.3,69.5,30.31,SW,225,1.8,2.2,94,0.00,,,0.00,WUHU216HW,2013-07-14 09:56:00,
2013-07-14 06:01:00,71.1,69.3,30.30,North,0,0.0,2.2,94,0.00,,,0.00,WUHU216HW,2013-07-14 10:01:00,
2013-07-14 06:06:00,71.3,69.5,30.31,SSW,203,1.3,1.8,94,0.00,,,0.00,WUHU216HW,2013-07-14 10:06:00,
2013-07-14 06:11:00,71.1,69.3,30.31,SW,225,0.4,1.3,94,0.00,,,0.00,WUHU216HW,2013-07-14 10:11:00,
2013-07-14 06:16:00,71.1,69.3,30.31,North,0,0.0,1.3,94,0.00,,,0.00,WUHU216HW,2013-07-14 10:16:00,
2013-07-14 06:21:00,71.3,69.5,30.31,SW,225,2.5,2.5,94,0.00,,,0.00,WUHU216HW,2013-07-14 10:21:00,
2013-07-14 06:26:00,71.3,69.5,30.31,WSW,248,1.8,2.5,94,0.00,,,0.00,WUHU216HW,2013-07-14 10:26:00,
2013-07-14 06:31:00,71.5,69.7,30.31,South,180,1.1,2.5,94,0.00,,,0.00,WUHU216HW,2013-07-14 10:31:00,
2013-07-14 06:36:00,71.5,69.7,30.31,North,0,0.0,1.8,94,0.00,,,0.00,WUHU216HW,2013-07-14 10:36:00,
2013-07-14 06:41:00,71.5,69.7,30.31,North,0,0.0,1.1,94,0.00,,,0.00,WUHU216HW,2013-07-14 10:41:00,
2013-07-14 06:46:00,71.6,69.9,30.31,SW,225,0.7,0.7,94,0.00,,,0.00,WUHU216HW,2013-07-14 10:46:00,
2013-07-14 06:51:00,71.6,69.5,30.31,SW,225,0.4,0.7,93,0.00,,,0.00,WUHU216HW,2013-07-14 10:51:00,
2013-07-14 06:56:00,71.6,69.5,30.31,SE,135,0.9,0.9,93,0.00,,,0.00,WUHU216HW,2013-07-14 10:56:00,
2013-07-14 07:01:00,71.8,69.7,30.31,North,0,0.0,0.9,93,0.00,,,0.00,WUHU216HW,2013-07-14 11:01:00,
2013-07-14 07:06:00,72.0,69.8,30.31,SW,225,0.4,0.9,93,0.00,,,0.00,WUHU216HW,2013-07-14 11:06:00,
2013-07-14 07:11:00,72.0,69.6,30.31,SSE,158,1.6,1.6,92,0.00,,,0.00,WUHU216HW,2013-07-14 11:11:00,
2013-07-14 07:16:00,72.0,69.8,30.31,SSW,203,2.0,2.0,93,0.00,,,0.00,WUHU216HW,2013-07-14 11:16:00,
2013-07-14 07:21:00,72.2,69.8,30.31,North,0,0.0,2.0,92,0.00,,,0.00,WUHU216HW,2013-07-14 11:21:00,
2013-07-14 07:26:00,72.4,69.9,30.31,North,0,0.0,2.0,92,0.00,,,0.00,WUHU216HW,2013-07-14 11:26:00,
2013-07-14 07:31:00,72.5,69.8,30.31,North,0,0.0,0.0,91,0.00,,,0.00,WUHU216HW,2013-07-14 11:31:00,
2013-07-14 07:36:00,72.7,69.9,30.31,North,0,0.0,0.0,91,0.00,,,0.00,WUHU216HW,2013-07-14 11:36:00,
2013-07-14 07:41:00,72.9,70.1,30.31,North,0,0.0,0.0,91,0.00,,,0.00,WUHU216HW,2013-07-14 11:41:00,
2013-07-14 07:46:00,72.9,70.1,30.31,North,0,0.0,0.0,91,0.00,,,0.00,WUHU216HW,2013-07-14 11:46:00,
2013-07-14 07:51:00,73.1,70.3,30.30,North,0,0.0,0.0,91,0.00,,,0.00,WUHU216HW,2013-07-14 11:51:00,
2013-07-14 07:56:00,73.4,71.0,30.31,North,0,0.0,0.0,92,0.00,,,0.00,WUHU216HW,2013-07-14 11:56:00,
2013-07-14 08:01:00,73.6,70.8,30.31,North,0,0.0,0.0,91,0.00,,,0.00,WUHU216HW,2013-07-14 12:01:00,
2013-07-14 08:06:00,73.8,70.7,30.31,North,0,0.0,0.0,90,0.00,,,0.00,WUHU216HW,2013-07-14 12:06:00,
2013-07-14 08:11:00,73.8,71.0,30.31,North,0,0.0,0.0,91,0.00,,,0.00,WUHU216HW,2013-07-14 12:11:00,
2013-07-14 08:16:00,74.2,71.1,30.31,North,0,0.0,0.0,90,0.00,,,0.00,WUHU216HW,2013-07-14 12:16:00,
2013-07-14 08:21:00,74.3,71.3,30.31,North,0,0.0,0.0,90,0.00,,,0.00,WUHU216HW,2013-07-14 12:21:00,
2013-07-14 08:26:00,74.9,71.5,30.31,North,0,0.0,0.0,89,0.00,,,0.00,WUHU216HW,2013-07-14 12:26:00,
2013-07-14 08:31:00,75.2,71.8,30.30,North,0,0.0,0.0,89,0.00,,,0.00,WUHU216HW,2013-07-14 12:31:00,
2013-07-14 08:36:00,75.8,71.6,30.30,North,0,0.0,0.0,87,0.00,,,0.00,WUHU216HW,2013-07-14 12:36:00,
2013-07-14 08:41:00,76.7,72.5,30.30,North,0,0.0,0.0,87,0.00,,,0.00,WUHU216HW,2013-07-14 12:41:00,
2013-07-14 08:46:00,77.0,72.5,30.30,North,0,0.0,0.0,86,0.00,,,0.00,WUHU216HW,2013-07-14 12:46:00,
2013-07-14 08:51:00,77.4,72.5,30.30,North,0,0.0,0.0,85,0.00,,,0.00,WUHU216HW,2013-07-14 12:51:00,
2013-07-14 08:56:00,77.6,72.7,30.30,North,0,0.0,0.0,85,0.00,,,0.00,WUHU216HW,2013-07-14 12:56:00,
2013-07-14 09:01:00,77.8,72.5,30.30,North,0,0.0,0.0,84,0.00,,,0.00,WUHU216HW,2013-07-14 13:01:00,
2013-07-14 09:06:00,78.3,72.0,30.30,North,0,0.0,0.0,81,0.00,,,0.00,WUHU216HW,2013-07-14 13:06:00,
2013-07-14 09:11:00,79.0,71.6,30.30,North,0,0.0,0.0,78,0.00,,,0.00,WUHU216HW,2013-07-14 13:11:00,
2013-07-14 09:16:00,79.9,72.1,30.30,North,0,0.0,0.0,77,0.00,,,0.00,WUHU216HW,2013-07-14 13:16:00,
2013-07-14 09:21:00,80.8,72.5,30.29,North,0,0.0,0.0,76,0.00,,,0.00,WUHU216HW,2013-07-14 13:21:00,
2013-07-14 09:26:00,82.4,74.5,30.29,North,0,0.0,0.0,77,0.00,,,0.00,WUHU216HW,2013-07-14 13:26:00,
2013-07-14 09:31:00,83.9,73.1,30.29,North,0,0.0,0.0,70,0.00,,,0.00,WUHU216HW,2013-07-14 13:31:00,
2013-07-14 09:36:00,85.3,75.3,30.29,North,0,0.0,0.0,72,0.00,,,0.00,WUHU216HW,2013-07-14 13:36:00,
2013-07-14 09:41:00,86.4,76.0,30.29,North,0,0.0,0.0,71,0.00,,,0.00,WUHU216HW,2013-07-14 13:41:00,
2013-07-14 09:46:00,86.9,73.3,30.29,North,0,0.0,0.0,64,0.00,,,0.00,WUHU216HW,2013-07-14 13:46:00,
2013-07-14 09:51:00,87.1,74.9,30.29,North,0,0.0,0.0,67,0.00,,,0.00,WUHU216HW,2013-07-14 13:51:00,
2013-07-14 09:56:00,88.6,75.8,30.29,North,0,0.0,0.0,66,0.00,,,0.00,WUHU216HW,2013-07-14 13:56:00,
2013-07-14 10:01:00,89.6,76.3,30.28,North,0,0.0,0.0,65,0.00,,,0.00,WUHU216HW,2013-07-14 14:01:00,
2013-07-14 10:06:00,90.9,74.6,30.28,North,0,0.0,0.0,59,0.00,,,0.00,WUHU216HW,2013-07-14 14:06:00,
2013-07-14 10:11:00,90.7,74.4,30.28,North,0,0.0,0.0,59,0.00,,,0.00,WUHU216HW,2013-07-14 14:11:00,
2013-07-14 10:16:00,90.5,74.3,30.28,North,0,0.0,0.0,59,0.00,,,0.00,WUHU216HW,2013-07-14 14:16:00,
2013-07-14 10:21:00,90.5,73.7,30.28,North,0,0.0,0.0,58,0.00,,,0.00,WUHU216HW,2013-07-14 14:21:00,
2013-07-14 10:26:00,91.1,73.6,30.28,North,0,0.0,0.0,57,0.00,,,0.00,WUHU216HW,2013-07-14 14:26:00,
2013-07-14 10:31:00,91.1,73.6,30.28,North,0,0.0,0.0,57,0.00,,,0.00,WUHU216HW,2013-07-14 14:31:00,
2013-07-14 10:36:00,91.8,73.8,30.28,North,0,0.0,0.0,56,0.00,,,0.00,WUHU216HW,2013-07-14 14:36:00,
2013-07-14 10:41:00,92.9,74.8,30.28,North,0,0.0,0.0,56,0.00,,,0.00,WUHU216HW,2013-07-14 14:41:00,
2013-07-14 10:46:00,93.2,75.2,30.28,North,0,0.0,0.0,56,0.00,,,0.00,WUHU216HW,2013-07-14 14:46:00,
2013-07-14 10:51:00,94.1,74.3,30.28,North,0,0.0,0.0,53,0.00,,,0.00,WUHU216HW,2013-07-14 14:51:00,
2013-07-14 10:56:00,93.8,73.4,30.28,North,0,0.0,0.0,52,0.00,,,0.00,WUHU216HW,2013-07-14 14:56:00,
2013-07-14 11:01:00,94.0,74.2,30.28,North,0,0.0,0.0,53,0.00,,,0.00,WUHU216HW,2013-07-14 15:01:00,
2013-07-14 11:06:00,94.7,74.9,30.28,North,0,0.0,0.0,53,0.00,,,0.00,WUHU216HW,2013-07-14 15:06:00,
2013-07-14 11:11:00,94.7,72.6,30.28,SW,225,2.7,2.7,49,0.00,,,0.00,WUHU216HW,2013-07-14 15:11:00,
2013-07-14 11:16:00,93.1,73.4,30.28,SW,225,2.0,2.7,53,0.00,,,0.00,WUHU216HW,2013-07-14 15:16:00,
2013-07-14 11:21:00,92.0,72.9,30.28,North,0,0.0,2.7,54,0.00,,,0.00,WUHU216HW,2013-07-14 15:21:00,
2013-07-14 11:26:00,91.4,73.4,30.28,North,0,0.0,2.0,56,0.00,,,0.00,WUHU216HW,2013-07-14 15:26:00,
2013-07-14 11:31:00,91.4,72.4,30.28,North,0,0.0,0.0,54,0.00,,,0.00,WUHU216HW,2013-07-14 15:31:00,
2013-07-14 11:36:00,92.5,73.4,30.28,North,0,0.0,0.0,54,0.00,,,0.00,WUHU216HW,2013-07-14 15:36:00,
2013-07-14 11:41:00,93.4,73.7,30.28,North,0,0.0,0.0,53,0.00,,,0.00,WUHU216HW,2013-07-14 15:41:00,
2013-07-14 11:46:00,94.0,72.5,30.28,North,0,0.0,0.0,50,0.00,,,0.00,WUHU216HW,2013-07-14 15:46:00,
2013-07-14 11:51:00,93.2,72.9,30.28,North,0,0.0,0.0,52,0.00,,,0.00,WUHU216HW,2013-07-14 15:51:00,
2013-07-14 11:56:00,92.9,72.6,30.28,North,0,0.0,0.0,52,0.00,,,0.00,WUHU216HW,2013-07-14 15:56:00,
2013-07-14 12:01:00,93.6,73.3,30.27,North,0,0.0,0.0,52,0.00,,,0.00,WUHU216HW,2013-07-14 16:01:00,
2013-07-14 12:06:00,93.6,72.2,30.27,North,0,0.0,0.0,50,0.00,,,0.00,WUHU216HW,2013-07-14 16:06:00,
2013-07-14 12:11:00,94.0,73.1,30.27,North,0,0.0,0.0,51,0.00,,,0.00,WUHU216HW,2013-07-14 16:11:00,
2013-07-14 12:16:00,94.7,73.3,30.27,North,0,0.0,0.0,50,0.00,,,0.00,WUHU216HW,2013-07-14 16:16:00,
2013-07-14 12:21:00,95.2,72.5,30.27,North,0,0.0,0.0,48,0.00,,,0.00,WUHU216HW,2013-07-14 16:21:00,
2013-07-14 12:26:00,95.4,73.3,30.26,North,0,0.0,0.0,49,0.00,,,0.00,WUHU216HW,2013-07-14 16:26:00,
2013-07-14 12:31:00,95.2,73.1,30.27,North,0,0.0,0.0,49,0.00,,,0.00,WUHU216HW,2013-07-14 16:31:00,
2013-07-14 12:36:00,95.0,72.3,30.27,NW,315,2.0,3.4,48,0.00,,,0.00,WUHU216HW,2013-07-14 16:36:00,
2013-07-14 12:41:00,95.4,72.6,30.26,North,0,1.1,3.6,48,0.00,,,0.00,WUHU216HW,2013-07-14 16:41:00,
2013-07-14 12:46:00,95.8,71.7,30.26,NNE,23,3.6,4.7,46,0.00,,,0.00,WUHU216HW,2013-07-14 16:46:00,
2013-07-14 12:51:00,93.8,69.8,30.26,SSW,203,4.5,4.7,46,0.00,,,0.00,WUHU216HW,2013-07-14 16:51:00,
2013-07-14 12:56:00,92.9,70.8,30.26,NNE,23,3.6,5.8,49,0.00,,,0.00,WUHU216HW,2013-07-14 16:56:00,
2013-07-14 13:01:00,93.1,71.0,30.26,NNE,23,4.5,5.8,49,0.00,,,0.00,WUHU216HW,2013-07-14 17:01:00,
2013-07-14 13:06:00,93.8,72.4,30.26,NNE,23,3.8,5.1,50,0.00,,,0.00,WUHU216HW,2013-07-14 17:06:00,
2013-07-14 13:11:00,93.4,72.0,30.26,West,270,2.5,4.7,50,0.00,,,0.00,WUHU216HW,2013-07-14 17:11:00,
2013-07-14 13:16:00,93.8,71.7,30.26,WNW,293,2.0,4.0,49,0.00,,,0.00,WUHU216HW,2013-07-14 17:16:00,
2013-07-14 13:21:00,94.1,70.7,30.26,WNW,293,3.4,4.7,47,0.00,,,0.00,WUHU216HW,2013-07-14 17:21:00,
2013-07-14 13:26:00,93.8,71.0,30.26,WNW,293,1.3,4.7,48,0.00,,,0.00,WUHU216HW,2013-07-14 17:26:00,
2013-07-14 13:31:00,94.3,72.3,30.26,NNW,338,3.4,4.7,49,0.00,,,0.00,WUHU216HW,2013-07-14 17:31:00,
2013-07-14 13:36:00,94.5,71.7,30.25,SSW,203,2.0,5.1,48,0.00,,,0.00,WUHU216HW,2013-07-14 17:36:00,
2013-07-14 13:41:00,93.4,71.4,30.25,NNE,23,4.0,5.1,49,0.00,,,0.00,WUHU216HW,2013-07-14 17:41:00,
2013-07-14 13:46:00,93.6,71.6,30.25,NNW,338,1.3,4.0,49,0.00,,,0.00,WUHU216HW,2013-07-14 17:46:00,
2013-07-14 13:51:00,93.4,70.8,30.25,NNW,338,1.1,4.0,48,0.00,,,0.00,WUHU216HW,2013-07-14 17:51:00,
2013-07-14 13:56:00,93.6,70.9,30.25,NNE,23,2.5,3.6,48,0.00,,,0.00,WUHU216HW,2013-07-14 17:56:00,
2013-07-14 14:01:00,93.6,71.6,30.25,East,90,2.9,4.0,49,0.00,,,0.00,WUHU216HW,2013-07-14 18:01:00,
2013-07-14 14:06:00,93.6,71.6,30.25,NNE,23,3.8,6.5,49,0.00,,,0.00,WUHU216HW,2013-07-14 18:06:00,
2013-07-14 14:11:00,93.4,70.8,30.25,NE,45,4.5,6.5,48,0.00,,,0.00,WUHU216HW,2013-07-14 18:11:00,
2013-07-14 14:16:00,93.4,70.8,30.24,North,0,1.6,4.5,48,0.00,,,0.00,WUHU216HW,2013-07-14 18:16:00,
2013-07-14 14:21:00,93.6,70.9,30.24,NW,315,2.2,4.5,48,0.00,,,0.00,WUHU216HW,2013-07-14 18:21:00,
2013-07-14 14:26:00,93.4,70.8,30.25,West,270,1.8,4.0,48,0.00,,,0.00,WUHU216HW,2013-07-14 18:26:00,
2013-07-14 14:31:00,93.4,70.8,30.25,NNW,338,2.7,4.7,48,0.00,,,0.00,WUHU216HW,2013-07-14 18:31:00,
2013-07-14 14:36:00,93.4,70.8,30.24,NW,315,1.1,4.7,48,0.00,,,0.00,WUHU216HW,2013-07-14 18:36:00,
2013-07-14 14:41:00,93.6,71.6,30.24,North,0,1.1,4.5,49,0.00,,,0.00,WUHU216HW,2013-07-14 18:41:00,
2013-07-14 14:46:00,93.4,71.4,30.24,NW,315,0.9,4.5,49,0.00,,,0.00,WUHU216HW,2013-07-14 18:46:00,
2013-07-14 14:51:00,93.1,71.6,30.24,NNW,338,1.6,2.5,50,0.00,,,0.00,WUHU216HW,2013-07-14 18:51:00,
2013-07-14 14:56:00,92.7,71.9,30.24,NNW,338,2.0,2.5,51,0.00,,,0.00,WUHU216HW,2013-07-14 18:56:00,
2013-07-14 15:01:00,92.3,71.6,30.24,West,270,0.9,2.5,51,0.00,,,0.00,WUHU216HW,2013-07-14 19:01:00,
2013-07-14 15:06:00,92.3,71.6,30.24,NNW,338,1.1,3.4,51,0.00,,,0.00,WUHU216HW,2013-07-14 19:06:00,
2013-07-14 15:11:00,92.5,72.3,30.24,West,270,2.0,3.4,52,0.00,,,0.00,WUHU216HW,2013-07-14 19:11:00,
2013-07-14 15:16:00,92.3,72.1,30.24,West,270,1.3,2.2,52,0.00,,,0.00,WUHU216HW,2013-07-14 19:16:00,
2013-07-14 15:21:00,92.2,71.9,30.24,NW,315,1.1,3.4,52,0.00,,,0.00,WUHU216HW,2013-07-14 19:21:00,
2013-07-14 15:26:00,92.2,71.9,30.24,WNW,293,1.1,3.4,52,0.00,,,0.00,WUHU216HW,2013-07-14 19:26:00,
2013-07-14 15:31:00,92.0,71.8,30.23,NW,315,0.9,2.9,52,0.00,,,0.00,WUHU216HW,2013-07-14 19:31:00,
2013-07-14 15:36:00,91.8,71.7,30.23,West,270,1.1,2.2,52,0.00,,,0.00,WUHU216HW,2013-07-14 19:36:00,
2013-07-14 15:41:00,91.8,72.2,30.23,WNW,293,1.3,2.0,53,0.00,,,0.00,WUHU216HW,2013-07-14 19:41:00,
2013-07-14 15:46:00,91.8,71.7,30.23,NNE,23,1.6,2.9,52,0.00,,,0.00,WUHU216HW,2013-07-14 19:46:00,
2013-07-14 15:51:00,92.0,72.4,30.23,West,270,0.9,2.9,53,0.00,,,0.00,WUHU216HW,2013-07-14 19:51:00,
2013-07-14 15:56:00,91.8,71.7,30.23,West,270,1.3,2.9,52,0.00,,,0.00,WUHU216HW,2013-07-14 19:56:00,
2013-07-14 16:01:00,91.8,71.7,30.23,WSW,248,3.6,3.6,52,0.00,,,0.00,WUHU216HW,2013-07-14 20:01:00,
2013-07-14 16:06:00,91.8,72.2,30.23,WNW,293,2.0,3.6,53,0.00,,,0.00,WUHU216HW,2013-07-14 20:06:00,
2013-07-14 16:11:00,92.2,71.9,30.23,NNW,338,1.1,3.6,52,0.00,,,0.00,WUHU216HW,2013-07-14 20:11:00,
2013-07-14 16:16:00,92.3,71.6,30.23,NW,315,1.1,3.4,51,0.00,,,0.00,WUHU216HW,2013-07-14 20:16:00,
2013-07-14 16:21:00,92.3,71.6,30.23,NNW,338,0.4,3.4,51,0.00,,,0.00,WUHU216HW,2013-07-14 20:21:00,
2013-07-14 16:26:00,92.2,71.9,30.23,NW,315,2.0,3.4,52,0.00,,,0.00,WUHU216HW,2013-07-14 20:26:00,
2013-07-14 16:31:00,91.8,72.2,30.23,NE,45,3.6,3.6,53,0.00,,,0.00,WUHU216HW,2013-07-14 20:31:00,
2013-07-14 16:36:00,91.6,72.0,30.23,NE,45,3.8,4.0,53,0.00,,,0.00,WUHU216HW,2013-07-14 20:36:00,
2013-07-14 16:41:00,91.3,71.6,30.22,ENE,68,1.8,4.7,53,0.00,,,0.00,WUHU216HW,2013-07-14 20:41:00,
2013-07-14 16:46:00,90.9,71.9,30.22,NNW,338,0.7,4.7,54,0.00,,,0.00,WUHU216HW,2013-07-14 20:46:00,
2013-07-14 16:51:00,90.5,72.1,30.22,NW,315,1.8,2.0,55,0.00,,,0.00,WUHU216HW,2013-07-14 20:51:00,
2013-07-14 16:56:00,90.4,72.5,30.22,NW,315,2.2,2.2,56,0.00,,,0.00,WUHU216HW,2013-07-14 20:56:00,
2013-07-14 17:01:00,90.4,71.9,30.22,NE,45,1.8,2.7,55,0.00,,,0.00,WUHU216HW,2013-07-14 21:01:00,
2013-07-14 17:06:00,90.5,72.6,30.22,NNW,338,2.0,2.7,56,0.00,,,0.00,WUHU216HW,2013-07-14 21:06:00,
2013-07-14 17:11:00,90.4,72.5,30.22,NNW,338,1.8,3.4,56,0.00,,,0.00,WUHU216HW,2013-07-14 21:11:00,
2013-07-14 17:16:00,90.0,72.7,30.22,East,90,0.9,3.4,57,0.00,,,0.00,WUHU216HW,2013-07-14 21:16:00,
2013-07-14 17:21:00,89.3,73.1,30.22,East,90,0.9,1.8,59,0.00,,,0.00,WUHU216HW,2013-07-14 21:21:00,
2013-07-14 17:26:00,88.9,73.4,30.21,SSW,203,0.7,1.6,60,0.00,,,0.00,WUHU216HW,2013-07-14 21:26:00,
2013-07-14 17:31:00,88.9,73.4,30.22,WNW,293,1.6,1.6,60,0.00,,,0.00,WUHU216HW,2013-07-14 21:31:00,
2013-07-14 17:36:00,89.1,73.0,30.21,WNW,293,0.9,1.6,59,0.00,,,0.00,WUHU216HW,2013-07-14 21:36:00,
2013-07-14 17:41:00,89.3,73.1,30.21,WNW,293,0.9,1.8,59,0.00,,,0.00,WUHU216HW,2013-07-14 21:41:00,
2013-07-14 17:46:00,89.3,72.5,30.22,WNW,293,0.9,1.8,58,0.00,,,0.00,WUHU216HW,2013-07-14 21:46:00,
2013-07-14 17:51:00,89.1,73.0,30.22,West,270,0.2,1.8,59,0.00,,,0.00,WUHU216HW,2013-07-14 21:51:00,
2013-07-14 17:56:00,89.1,73.0,30.22,West,270,0.9,1.8,59,0.00,,,0.00,WUHU216HW,2013-07-14 21:56:00,
2013-07-14 18:01:00,88.7,72.6,30.22,SW,225,0.9,1.6,59,0.00,,,0.00,WUHU216HW,2013-07-14 22:01:00,
2013-07-14 18:06:00,88.7,73.2,30.22,West,270,0.7,1.6,60,0.00,,,0.00,WUHU216HW,2013-07-14 22:06:00,
2013-07-14 18:11:00,88.6,72.5,30.21,NE,45,1.8,4.7,59,0.00,,,0.00,WUHU216HW,2013-07-14 22:11:00,
2013-07-14 18:16:00,88.6,72.5,30.21,WSW,248,0.4,4.7,59,0.00,,,0.00,WUHU216HW,2013-07-14 22:16:00,
2013-07-14 18:21:00,88.6,73.0,30.21,West,270,0.9,2.2,60,0.00,,,0.00,WUHU216HW,2013-07-14 22:21:00,
2013-07-14 18:26:00,88.2,73.2,30.21,WSW,248,0.4,1.1,61,0.00,,,0.00,WUHU216HW,2013-07-14 22:26:00,
2013-07-14 18:31:00,88.2,73.2,30.21,SE,135,0.4,1.1,61,0.00,,,0.00,WUHU216HW,2013-07-14 22:31:00,
2013-07-14 18:36:00,88.0,73.5,30.22,SE,135,0.7,1.1,62,0.00,,,0.00,WUHU216HW,2013-07-14 22:36:00,
2013-07-14 18:41:00,87.7,73.1,30.22,ESE,113,0.0,1.1,62,0.00,,,0.00,WUHU216HW,2013-07-14 22:41:00,
2013-07-14 18:46:00,87.5,72.9,30.21,WSW,248,0.2,1.1,62,0.00,,,0.00,WUHU216HW,2013-07-14 22:46:00,
2013-07-14 18:51:00,87.7,73.1,30.22,South,180,0.0,1.1,62,0.00,,,0.00,WUHU216HW,2013-07-14 22:51:00,
2013-07-14 18:56:00,87.5,72.9,30.21,South,180,0.4,0.9,62,0.00,,,0.00,WUHU216HW,2013-07-14 22:56:00,
2013-07-14 19:01:00,87.5,73.4,30.21,South,180,0.2,0.9,63,0.00,,,0.00,WUHU216HW,2013-07-14 23:01:00,
2013-07-14 19:06:00,87.5,72.5,30.22,West,270,1.8,2.5,61,0.00,,,0.00,WUHU216HW,2013-07-14 23:06:00,
2013-07-14 19:11:00,87.5,72.9,30.22,SW,225,1.3,2.5,62,0.00,,,0.00,WUHU216HW,2013-07-14 23:11:00,
2013-07-14 19:16:00,87.5,73.4,30.22,SW,225,1.3,1.8,63,0.00,,,0.00,WUHU216HW,2013-07-14 23:16:00,
2013-07-14 19:21:00,87.5,72.9,30.21,SW,225,1.1,1.8,62,0.00,,,0.00,WUHU216HW,2013-07-14 23:21:00,
2013-07-14 19:26:00,86.9,72.8,30.22,ESE,113,1.3,1.8,63,0.00,,,0.00,WUHU216HW,2013-07-14 23:26:00,
2013-07-14 19:31:00,86.8,74.1,30.21,SSE,158,2.0,2.0,66,0.00,,,0.00,WUHU216HW,2013-07-14 23:31:00,
2013-07-14 19:36:00,86.4,74.2,30.21,SE,135,1.3,2.5,67,0.00,,,0.00,WUHU216HW,2013-07-14 23:36:00,
2013-07-14 19:41:00,86.0,74.8,30.22,SE,135,1.1,2.5,69,0.00,,,0.00,WUHU216HW,2013-07-14 23:41:00,
2013-07-14 19:46:00,85.7,74.0,30.21,SSW,203,0.4,3.8,68,0.00,,,0.00,WUHU216HW,2013-07-14 23:46:00,
2013-07-14 19:51:00,85.3,74.1,30.21,SE,135,1.1,3.8,69,0.00,,,0.00,WUHU216HW,2013-07-14 23:51:00,
2013-07-14 19:56:00,84.8,74.0,30.22,South,180,2.9,2.9,70,0.00,,,0.00,WUHU216HW,2013-07-14 23:56:00,
2013-07-14 20:01:00,84.4,74.4,30.21,ESE,113,0.4,2.9,72,0.00,,,0.00,WUHU216HW,2013-07-15 00:01:00,
2013-07-14 20:06:00,84.1,74.1,30.22,SE,135,0.7,2.9,72,0.00,,,0.00,WUHU216HW,2013-07-15 00:06:00,
2013-07-14 20:11:00,83.7,74.1,30.22,SE,135,0.4,1.3,73,0.00,,,0.00,WUHU216HW,2013-07-15 00:11:00,
2013-07-14 20:16:00,83.2,74.4,30.21,SE,135,1.1,1.1,75,0.00,,,0.00,WUHU216HW,2013-07-15 00:16:00,
2013-07-14 20:21:00,82.8,74.4,30.21,SE,135,1.3,1.6,76,0.00,,,0.00,WUHU216HW,2013-07-15 00:21:00,
2013-07-14 20:26:00,82.4,74.5,30.21,ESE,113,1.6,1.8,77,0.00,,,0.00,WUHU216HW,2013-07-15 00:26:00,
2013-07-14 20:31:00,82.1,74.2,30.21,SW,225,2.2,2.2,77,0.00,,,0.00,WUHU216HW,2013-07-15 00:31:00,
2013-07-14 20:36:00,81.9,74.0,30.21,SSE,158,0.7,2.2,77,0.00,,,0.00,WUHU216HW,2013-07-15 00:36:00,
2013-07-14 20:41:00,81.7,73.8,30.22,SW,225,3.1,3.6,77,0.00,,,0.00,WUHU216HW,2013-07-15 00:41:00,
2013-07-14 20:46:00,81.7,73.8,30.22,SW,225,2.5,3.6,77,0.00,,,0.00,WUHU216HW,2013-07-15 00:46:00,
2013-07-14 20:51:00,81.5,73.7,30.22,WSW,248,1.8,2.7,77,0.00,,,0.00,WUHU216HW,2013-07-15 00:51:00,
2013-07-14 20:56:00,81.4,73.9,30.22,SW,225,1.6,2.5,78,0.00,,,0.00,WUHU216HW,2013-07-15 00:56:00,
2013-07-14 21:01:00,81.0,73.5,30.22,SW,225,1.1,2.0,78,0.00,,,0.00,WUHU216HW,2013-07-15 01:01:00,
2013-07-14 21:06:00,80.6,73.2,30.22,SE,135,0.4,2.0,78,0.00,,,0.00,WUHU216HW,2013-07-15 01:06:00,
2013-07-14 21:11:00,80.5,73.5,30.22,SE,135,0.2,1.3,79,0.00,,,0.00,WUHU216HW,2013-07-15 01:11:00,
2013-07-14 21:16:00,80.3,72.8,30.23,SE,135,0.4,0.9,78,0.00,,,0.00,WUHU216HW,2013-07-15 01:16:00,
2013-07-14 21:21:00,80.3,72.8,30.22,SE,135,0.2,0.7,78,0.00,,,0.00,WUHU216HW,2013-07-15 01:21:00,
2013-07-14 21:26:00,80.3,72.5,30.23,SE,135,0.0,0.4,77,0.00,,,0.00,WUHU216HW,2013-07-15 01:26:00,
2013-07-14 21:31:00,80.3,72.5,30.23,SE,135,0.0,0.4,77,0.00,,,0.00,WUHU216HW,2013-07-15 01:31:00,
2013-07-14 21:36:00,80.1,72.3,30.23,SE,135,0.0,0.4,77,0.00,,,0.00,WUHU216HW,2013-07-15 01:36:00,
2013-07-14 21:41:00,79.9,72.1,30.23,SW,225,1.1,1.6,77,0.00,,,0.00,WUHU216HW,2013-07-15 01:41:00,
2013-07-14 21:46:00,79.9,72.1,30.23,WSW,248,1.3,1.6,77,0.00,,,0.00,WUHU216HW,2013-07-15 01:46:00,
2013-07-14 21:51:00,79.7,72.3,30.23,WSW,248,0.0,1.6,78,0.00,,,0.00,WUHU216HW,2013-07-15 01:51:00,
2013-07-14 21:56:00,79.6,72.1,30.22,WSW,248,0.4,1.3,78,0.00,,,0.00,WUHU216HW,2013-07-15 01:56:00,
2013-07-14 22:01:00,79.2,71.7,30.23,WSW,248,0.4,0.7,78,0.00,,,0.00,WUHU216HW,2013-07-15 02:01:00,
2013-07-14 22:06:00,79.2,71.7,30.22,WSW,248,0.0,0.7,78,0.00,,,0.00,WUHU216HW,2013-07-15 02:06:00,
2013-07-14 22:11:00,79.0,71.6,30.23,WSW,248,0.0,0.4,78,0.00,,,0.00,WUHU216HW,2013-07-15 02:11:00,
2013-07-14 22:16:00,78.8,71.8,30.23,WSW,248,0.0,0.0,79,0.00,,,0.00,WUHU216HW,2013-07-15 02:16:00,
2013-07-14 22:21:00,78.7,71.7,30.23,WSW,248,0.0,0.2,79,0.00,,,0.00,WUHU216HW,2013-07-15 02:21:00,
2013-07-14 22:26:00,78.5,71.8,30.22,WSW,248,1.1,1.1,80,0.00,,,0.00,WUHU216HW,2013-07-15 02:26:00,
2013-07-14 22:31:00,78.5,72.2,30.22,WSW,248,0.4,1.1,81,0.00,,,0.00,WUHU216HW,2013-07-15 02:31:00,
2013-07-14 22:36:00,78.3,72.0,30.22,WSW,248,0.7,1.1,81,0.00,,,0.00,WUHU216HW,2013-07-15 02:36:00,
2013-07-14 22:41:00,78.3,72.0,30.22,WSW,248,0.0,0.9,81,0.00,,,0.00,WUHU216HW,2013-07-15 02:41:00,
2013-07-14 22:46:00,78.1,71.8,30.22,WSW,248,0.4,1.1,81,0.00,,,0.00,WUHU216HW,2013-07-15 02:46:00,
2013-07-14 22:51:00,78.1,71.8,30.22,WSW,248,0.2,1.1,81,0.00,,,0.00,WUHU216HW,2013-07-15 02:51:00,
2013-07-14 22:56:00,77.9,71.6,30.22,WSW,248,0.0,0.7,81,0.00,,,0.00,WUHU216HW,2013-07-15 02:56:00,
2013-07-14 23:01:00,77.8,71.5,30.22,WSW,248,0.9,0.9,81,0.00,,,0.00,WUHU216HW,2013-07-15 03:01:00,
2013-07-14 23:06:00,77.6,71.3,30.22,WSW,248,0.0,0.9,81,0.00,,,0.00,WUHU216HW,2013-07-15 03:06:00,
2013-07-14 23:11:00,77.4,71.1,30.22,WSW,248,0.0,0.9,81,0.00,,,0.00,WUHU216HW,2013-07-15 03:11:00,
2013-07-14 23:16:00,77.4,71.1,30.22,East,90,0.0,0.7,81,0.00,,,0.00,WUHU216HW,2013-07-15 03:16:00,
2013-07-14 23:21:00,77.0,71.1,30.22,East,90,1.1,1.1,82,0.00,,,0.00,WUHU216HW,2013-07-15 03:21:00,
2013-07-14 23:26:00,76.7,70.7,30.22,East,90,0.7,1.6,82,0.00,,,0.00,WUHU216HW,2013-07-15 03:26:00,
2013-07-14 23:31:00,76.5,70.9,30.22,East,90,0.4,1.6,83,0.00,,,0.00,WUHU216HW,2013-07-15 03:31:00,
2013-07-14 23:36:00,76.3,70.8,30.22,East,90,0.0,0.7,83,0.00,,,0.00,WUHU216HW,2013-07-15 03:36:00,
2013-07-14 23:41:00,76.3,70.8,30.22,East,90,0.7,0.7,83,0.00,,,0.00,WUHU216HW,2013-07-15 03:41:00,
2013-07-14 23:46:00,76.1,70.7,30.22,East,90,1.1,1.1,83,0.00,,,0.00,WUHU216HW,2013-07-15 03:46:00,
2013-07-14 23:51:00,76.0,70.5,30.22,East,90,0.0,1.1,83,0.00,,,0.00,WUHU216HW,2013-07-15 03:51:00,
2013-07-14 23:56:00,76.0,70.8,30.22,East,90,0.0,1.1,84,0.00,,,0.00,WUHU216HW,2013-07-15 03:56:00,